Time;durP1;ratioP1;P1;durP2;ratioP2;P2;SDS_P1;SDS_P2;PMS_P1;PMS_P2;Temp;Humidity;BMP_temperature;BMP_pressure;BME280_temperature;BME280_humidity;BME280_pressure;Samples;Min_cycle;Max_cycle;Signal;HPM_P1;HPM_P2
2022/12/24 00:02:21;;;;;;;;;78.67;58.00;;;;;4.53;100.00;99062.53;6284004;20;3642970;-54
2022/12/24 00:04:51;;;;;;;;;78.33;59.33;;;;;4.43;100.00;99063.88;6316614;20;3615897;-54
2022/12/24 00:07:29;;;;;;;;;85.00;62.00;;;;;4.54;100.00;99055.41;6315130;20;3653806;-53
2022/12/24 00:09:59;;;;;;;;;83.00;63.33;;;;;4.57;100.00;99053.44;6281412;20;3644077;-55
2022/12/24 00:12:28;;;;;;;;;82.67;62.00;;;;;4.44;100.00;99067.41;6314870;20;3629462;-53
2022/12/24 00:14:58;;;;;;;;;80.33;61.33;;;;;4.60;100.00;99050.63;6313610;20;3635742;-55
2022/12/24 00:17:27;;;;;;;;;80.33;60.00;;;;;4.75;100.00;99025.13;6316023;20;3630525;-53
2022/12/24 00:19:57;;;;;;;;;86.67;62.00;;;;;4.65;100.00;99005.22;6311517;20;3647177;-55
2022/12/24 00:22:27;;;;;;;;;90.00;65.00;;;;;4.63;100.00;99015.06;6280620;20;3657613;-56
2022/12/24 00:24:56;;;;;;;;;78.67;57.33;;;;;4.59;100.00;99011.72;6314811;20;3644147;-53
2022/12/24 00:27:26;;;;;;;;;87.00;64.33;;;;;4.61;100.00;98995.69;6315830;20;3649205;-56
2022/12/24 00:29:55;;;;;;;;;95.33;67.00;;;;;4.67;100.00;98983.91;6308243;20;3664838;-52
2022/12/24 00:32:25;;;;;;;;;82.33;61.00;;;;;4.46;100.00;98977.81;6280396;20;3627382;-56
2022/12/24 00:34:54;;;;;;;;;83.33;60.67;;;;;4.49;100.00;98989.16;6311886;20;3636760;-55
2022/12/24 00:37:24;;;;;;;;;83.50;61.00;;;;;4.51;100.00;99000.59;6320117;20;3640976;-52
2022/12/24 00:39:53;;;;;;;;;80.33;59.33;;;;;4.49;100.00;99010.41;6314733;20;3656524;-55
2022/12/24 00:42:23;;;;;;;;;77.00;56.33;;;;;4.42;100.00;99006.31;6282814;20;3638928;-54
2022/12/24 00:44:53;;;;;;;;;76.33;59.00;;;;;4.56;100.00;99003.03;6315492;20;3628435;-55
2022/12/24 00:47:23;;;;;;;;;79.67;59.00;;;;;4.57;100.00;99005.59;6314205;20;3635846;-52
2022/12/24 00:49:53;;;;;;;;;77.00;58.67;;;;;4.55;100.00;98998.63;6311099;20;3630467;-51
2022/12/24 00:52:22;;;;;;;;;81.33;59.67;;;;;4.65;100.00;98994.59;6282301;20;3657582;-53
2022/12/24 00:54:52;;;;;;;;;76.00;56.33;;;;;4.50;100.00;98996.22;6281594;20;3653403;-55
2022/12/24 00:57:21;;;;;;;;;72.67;58.00;;;;;4.72;100.00;98997.84;6312706;20;3617119;-52
2022/12/24 00:59:51;;;;;;;;;84.00;61.33;;;;;4.82;100.00;98989.31;6310050;20;3632607;-51
2022/12/24 01:02:20;;;;;;;;;83.67;63.33;;;;;4.77;100.00;98996.66;6310751;20;3636880;-52
2022/12/24 01:05:09;;;;;;;;;84.00;63.00;;;;;4.71;100.00;98998.75;6313564;20;3653489;-54
2022/12/24 01:07:43;;;;;;;;;79.67;61.00;;;;;4.78;100.00;99005.50;6313568;20;3641975;-51
2022/12/24 01:10:18;;;;;;;;;77.67;58.67;;;;;4.68;100.00;99012.19;6313204;20;3638886;-54
2022/12/24 01:12:48;;;;;;;;;75.33;57.33;;;;;4.68;100.00;99031.66;6313935;20;3650287;-53
2022/12/24 01:15:17;;;;;;;;;85.33;62.00;;;;;4.76;100.00;99041.94;6313010;20;3637984;-54
2022/12/24 01:17:47;;;;;;;;;90.33;73.33;;;;;4.77;100.00;99071.13;6314639;20;3664863;-51
2022/12/24 01:20:17;;;;;;;;;93.33;64.33;;;;;4.68;100.00;99066.22;6281524;20;3669041;-51
2022/12/24 01:22:47;;;;;;;;;82.33;64.67;;;;;4.94;100.00;99053.50;6280109;20;3619035;-51
2022/12/24 01:25:17;;;;;;;;;88.67;64.33;;;;;4.76;100.00;99048.09;6312414;20;3653417;-53
2022/12/24 01:27:47;;;;;;;;;83.33;62.67;;;;;4.79;100.00;99040.00;6281185;20;3644005;-54
2022/12/24 01:30:16;;;;;;;;;80.33;58.33;;;;;4.69;100.00;99029.91;6312155;20;3649256;-56
2022/12/24 01:32:46;;;;;;;;;79.33;60.00;;;;;4.64;100.00;99010.63;6313784;20;3637780;-53
2022/12/24 01:35:16;;;;;;;;;80.33;58.00;;;;;4.81;100.00;98992.03;6312789;20;3657730;-54
2022/12/24 01:37:46;;;;;;;;;78.33;58.67;;;;;4.81;100.00;98986.72;6315725;20;3643053;-55
2022/12/24 01:43:22;;;;;;;;;86.00;60.33;;;;;4.93;100.00;98966.66;6280645;20;3647213;-53
2022/12/24 01:46:02;;;;;;;;;90.67;70.67;;;;;4.83;100.00;98964.44;6315201;20;3669115;-49
2022/12/24 01:48:45;;;;;;;;;82.67;63.00;;;;;4.69;100.00;98955.44;6276747;20;3633663;-51
2022/12/24 01:51:36;;;;;;;;;77.67;60.00;;;;;4.77;100.00;98958.59;6310088;20;3636733;-54
2022/12/24 01:54:21;;;;;;;;;73.33;56.00;;;;;4.63;100.00;98964.56;6311491;20;3634749;-50
2022/12/24 01:57:36;;;;;;;;;81.00;60.00;;;;;4.71;100.00;98950.88;6313049;20;3628411;-55
2022/12/24 02:00:13;;;;;;;;;75.33;57.33;;;;;4.60;100.00;98946.97;6310182;20;3628516;-52
2022/12/24 02:02:48;;;;;;;;;76.00;56.00;;;;;4.55;100.00;98932.16;6310221;20;3631554;-54
2022/12/24 02:05:32;;;;;;;;;75.33;58.00;;;;;4.47;100.00;98926.38;6308196;20;3629580;-51
2022/12/24 02:08:04;;;;;;;;;75.33;54.00;;;;;4.42;100.00;98915.97;6303367;20;3648216;-54
2022/12/24 02:10:34;;;;;;;;;79.33;57.33;;;;;4.34;100.00;98907.50;6307146;20;3639844;-54
2022/12/24 02:13:06;;;;;;;;;82.67;64.00;;;;;4.53;100.00;98889.75;6311819;20;3635689;-53
2022/12/24 02:16:27;;;;;;;;;87.75;61.00;;;;;4.52;100.00;98893.31;6315012;20;3661148;-55
2022/12/24 02:19:27;;;;;;;;;81.67;60.33;;;;;4.49;100.00;98908.56;6312499;20;3628377;-53
2022/12/24 02:22:21;;;;;;;;;84.00;62.33;;;;;4.83;100.00;98913.06;6312807;20;3636725;-54
2022/12/24 02:25:08;;;;;;;;;87.00;64.67;;;;;4.83;100.00;98927.22;6311171;20;3661902;-53
2022/12/24 02:28:18;;;;;;;;;88.67;68.33;;;;;4.81;100.00;98944.19;6310691;20;3655681;-53
2022/12/24 02:31:05;;;;;;;;;86.67;63.67;;;;;4.88;100.00;98948.25;6274694;20;3653534;-54
2022/12/24 02:33:44;;;;;;;;;87.67;64.67;;;;;4.89;100.00;98939.31;6309323;20;3652365;-52
2022/12/24 02:36:33;;;;;;;;;89.33;68.00;;;;;5.00;100.00;98945.00;6275959;20;3677338;-55
2022/12/24 02:39:20;;;;;;;;;92.33;69.00;;;;;5.01;100.00;98938.72;6275882;20;3664908;-55
2022/12/24 02:42:05;;;;;;;;;86.00;62.33;;;;;5.01;100.00;98952.03;6279036;20;3648212;-52
2022/12/24 02:44:49;;;;;;;;;89.67;70.67;;;;;4.82;100.00;98945.91;6309456;20;3672241;-56
2022/12/24 02:47:25;;;;;;;;;97.33;79.67;;;;;4.99;100.00;98937.94;6279754;20;3662958;-53
2022/12/24 02:49:54;;;;;;;;;86.67;64.33;;;;;4.99;100.00;98947.72;6274339;20;3663782;-53
2022/12/24 02:52:32;;;;;;;;;85.67;64.33;;;;;5.01;100.00;98952.03;6277037;20;3630466;-54
2022/12/24 02:55:11;;;;;;;;;92.33;74.67;;;;;5.06;100.00;98968.63;6308288;20;3658650;-54
2022/12/24 02:58:21;;;;;;;;;88.33;66.00;;;;;5.12;100.00;98959.47;6277272;20;3654474;-54
2022/12/24 03:01:35;;;;;;;;;90.25;71.50;;;;;5.07;100.00;98959.69;6313148;20;4419013;-53
2022/12/24 03:04:52;;;;;;;;;84.00;67.33;;;;;4.99;100.00;98959.22;6318028;20;3632531;-55
2022/12/24 03:07:59;;;;;;;;;95.33;79.33;;;;;5.13;100.00;98966.50;6313177;20;3675280;-55
2022/12/24 03:10:42;;;;;;;;;87.67;64.33;;;;;5.12;100.00;98966.59;6280558;20;3658617;-55
2022/12/24 03:13:17;;;;;;;;;81.33;62.67;;;;;5.12;100.00;98953.28;6279186;20;3638846;-53
2022/12/24 03:15:49;;;;;;;;;85.33;67.00;;;;;5.01;100.00;98941.38;6310519;20;3666939;-53
2022/12/24 03:18:28;;;;;;;;;86.67;63.00;;;;;5.11;100.00;98940.91;6277281;20;3661890;-55
2022/12/24 03:21:23;;;;;;;;;83.67;64.00;;;;;4.96;100.00;98927.44;6308881;20;3633596;-53
2022/12/24 03:23:54;;;;;;;;;84.67;66.67;;;;;5.07;100.00;98927.75;6281124;20;3641925;-56
2022/12/24 03:26:27;;;;;;;;;89.50;71.25;;;;;5.33;100.00;98938.84;6312814;20;4419148;-54
2022/12/24 03:28:57;;;;;;;;;85.00;64.00;;;;;5.57;100.00;98930.53;6306390;20;3641912;-56
2022/12/24 03:31:41;;;;;;;;;87.67;65.00;;;;;5.78;100.00;98932.03;6311745;20;3660778;-52
2022/12/24 03:34:13;;;;;;;;;88.00;68.33;;;;;6.01;100.00;98924.63;6282233;20;3661770;-52
2022/12/24 03:36:43;;;;;;;;;75.00;62.00;;;;;6.21;100.00;98926.16;6314627;20;2858674;-54
2022/12/24 03:39:13;;;;;;;;;86.00;63.67;;;;;6.19;100.00;98928.06;6283065;20;3639200;-54
2022/12/24 03:41:42;;;;;;;;;89.67;72.00;;;;;6.20;100.00;98943.97;6278644;20;3674215;-52
2022/12/24 03:44:12;;;;;;;;;87.25;68.50;;;;;6.23;100.00;98927.81;6286245;20;4411899;-53
2022/12/24 03:46:41;;;;;;;;;84.33;62.33;;;;;6.24;100.00;98934.88;6314782;20;3640244;-55
2022/12/24 03:49:11;;;;;;;;;88.67;66.67;;;;;6.02;100.00;98940.50;6282160;20;3655716;-53
2022/12/24 03:51:41;;;;;;;;;79.00;62.33;;;;;6.00;100.00;98936.22;6282970;20;2863995;-55
2022/12/24 03:54:10;;;;;;;;;82.33;64.67;;;;;6.03;100.00;98936.03;6316594;20;3630618;-53
2022/12/24 03:56:40;;;;;;;;;90.00;68.00;;;;;5.95;100.00;98941.81;6313753;20;3667003;-53
2022/12/24 03:59:09;;;;;;;;;86.00;66.25;;;;;6.08;100.00;98939.31;6285943;20;3646173;-52
2022/12/24 04:01:39;;;;;;;;;82.67;65.00;;;;;6.20;100.00;98943.13;6309662;20;3636771;-56
2022/12/24 04:04:08;;;;;;;;;88.00;67.33;;;;;6.08;100.00;98952.63;6314126;20;3660876;-52
2022/12/24 04:06:38;;;;;;;;;85.33;63.33;;;;;6.09;100.00;98941.06;6280595;20;3646124;-53
2022/12/24 04:09:07;;;;;;;;;84.00;66.33;;;;;6.13;100.00;98942.59;6277651;20;3649295;-54
2022/12/24 04:11:37;;;;;;;;;88.33;64.67;;;;;6.23;100.00;98954.47;6313243;20;3660750;-52
2022/12/24 04:14:06;;;;;;;;;91.67;78.00;;;;;6.00;100.00;98958.38;6281425;20;3654416;-55
2022/12/24 04:16:36;;;;;;;;;84.67;63.33;;;;;6.08;100.00;98965.97;6280633;20;3646197;-53
2022/12/24 04:19:06;;;;;;;;;94.67;77.67;;;;;6.14;100.00;98955.84;6314850;20;3664981;-52
2022/12/24 04:21:35;;;;;;;;;90.00;69.25;;;;;6.08;100.00;98957.97;6286439;20;4425377;-53
2022/12/24 04:24:05;;;;;;;;;88.00;71.67;;;;;6.15;100.00;98956.69;6314074;20;3669214;-55
2022/12/24 04:26:35;;;;;;;;;95.67;78.00;;;;;6.05;100.00;98944.81;6282288;20;3654497;-54
2022/12/24 04:29:04;;;;;;;;;86.33;65.00;;;;;6.08;100.00;98949.97;6282084;20;3661694;-56
2022/12/24 04:31:34;;;;;;;;;90.00;68.00;;;;;6.19;100.00;98950.25;6311305;20;3658674;-55
2022/12/24 04:34:04;;;;;;;;;89.67;74.33;;;;;6.24;100.00;98937.53;6280272;20;3672190;-55
2022/12/24 04:36:33;;;;;;;;;94.33;80.00;;;;;6.31;100.00;98960.22;6279199;20;3670029;-54
2022/12/24 04:39:03;;;;;;;;;92.00;72.00;;;;;6.20;100.00;98954.63;6280849;20;3677434;-54
2022/12/24 04:41:33;;;;;;;;;88.75;69.00;;;;;6.23;100.00;98954.47;6286381;20;4429404;-54
2022/12/24 04:44:02;;;;;;;;;90.75;77.75;;;;;6.15;100.00;98951.34;6315265;20;4411840;-55
2022/12/24 04:46:32;;;;;;;;;87.00;67.00;;;;;6.12;100.00;98951.53;6315599;20;3655450;-53
2022/12/24 04:49:02;;;;;;;;;88.67;70.00;;;;;6.22;100.00;98967.88;6280559;20;3665978;-52
2022/12/24 04:51:31;;;;;;;;;86.00;69.33;;;;;6.18;100.00;98966.31;6283591;20;3633671;-55
2022/12/24 04:54:01;;;;;;;;;94.33;71.00;;;;;6.15;100.00;98959.34;6312876;20;3683688;-55
2022/12/24 04:56:32;;;;;;;;;92.00;76.00;;;;;6.15;100.00;98962.03;6283676;20;4443090;-56
2022/12/24 04:59:02;;;;;;;;;87.67;66.67;;;;;6.27;100.00;98950.69;6314453;20;3672311;-55
2022/12/24 05:01:32;;;;;;;;;84.67;65.33;;;;;6.20;100.00;98957.28;6283164;20;3642364;-52
2022/12/24 05:04:02;;;;;;;;;90.67;72.67;;;;;6.23;100.00;98946.47;6311305;20;3662776;-54
2022/12/24 05:06:33;;;;;;;;;90.00;71.00;;;;;6.22;100.00;98958.09;6281171;20;3671157;-53
2022/12/24 05:09:03;;;;;;;;;88.00;69.33;;;;;6.21;100.00;98968.81;6279697;20;3654508;-55
2022/12/24 05:11:33;;;;;;;;;90.67;71.00;;;;;6.13;100.00;98969.22;6275689;20;3676305;-56
2022/12/24 05:14:03;;;;;;;;;89.00;73.00;;;;;6.09;100.00;98970.38;6280746;20;3673186;-54
2022/12/24 05:16:32;;;;;;;;;87.67;66.67;;;;;6.23;100.00;98978.44;6280578;20;3655497;-55
2022/12/24 05:19:02;;;;;;;;;87.00;70.67;;;;;6.09;100.00;98981.88;6310509;20;3653431;-54
2022/12/24 05:21:31;;;;;;;;;91.33;70.33;;;;;6.02;100.00;98980.47;6278270;20;3676442;-57
2022/12/24 05:26:55;;;;;;;;;85.00;71.33;;;;;5.94;100.00;98991.56;6278989;20;3641011;-56
2022/12/24 05:29:25;;;;;;;;;92.00;70.00;;;;;5.99;100.00;98998.44;6310298;20;3514901;-55
2022/12/24 05:31:54;;;;;;;;;87.33;66.33;;;;;5.86;100.00;98993.72;6313912;20;3661720;-54
2022/12/24 05:34:24;;;;;;;;;91.00;69.33;;;;;5.84;100.00;98984.09;6278876;20;3671104;-53
2022/12/24 05:36:54;;;;;;;;;88.00;70.67;;;;;5.87;100.00;98986.59;6282908;20;3670157;-55
2022/12/24 05:39:21;;;;;;;;;94.50;78.00;;;;;5.97;100.00;98982.53;6279010;20;1942993;-58
2022/12/24 05:41:51;;;;;;;;;89.00;71.00;;;;;5.93;100.00;98992.50;6280372;20;3657688;-55
2022/12/24 05:44:21;;;;;;;;;86.33;67.00;;;;;5.89;100.00;98984.72;6284251;20;3651465;-53
2022/12/24 05:46:51;;;;;;;;;87.00;66.33;;;;;5.94;100.00;98983.56;6283343;20;2895208;-55
2022/12/24 05:49:20;;;;;;;;;89.00;68.67;;;;;5.96;100.00;98982.63;6312866;20;3668016;-56
2022/12/24 05:51:50;;;;;;;;;84.67;64.00;;;;;6.00;100.00;98992.16;6278318;20;3633623;-55
2022/12/24 05:54:19;;;;;;;;;85.00;67.00;;;;;6.09;100.00;98989.03;6312387;20;3651472;-57
2022/12/24 05:56:49;;;;;;;;;87.33;68.00;;;;;6.05;100.00;98987.44;6270977;20;3656545;-55
2022/12/24 05:59:18;;;;;;;;;91.25;74.25;;;;;6.05;100.00;98992.78;6314029;20;4431136;-55
2022/12/24 06:01:48;;;;;;;;;85.00;66.67;;;;;6.10;100.00;98996.06;6310443;20;3651405;-55
2022/12/24 06:04:18;;;;;;;;;86.67;64.00;;;;;6.13;100.00;99002.09;6278868;20;3638823;-57
2022/12/24 06:06:56;;;;;;;;;83.67;64.33;;;;;6.12;100.00;99004.84;6278200;20;3647131;-55
2022/12/24 06:09:26;;;;;;;;;89.00;65.00;;;;;6.14;100.00;99002.97;6310943;20;3661723;-57
2022/12/24 06:11:55;;;;;;;;;84.67;65.00;;;;;6.05;100.00;99003.44;6279091;20;3629538;-57
2022/12/24 06:14:25;;;;;;;;;87.67;69.33;;;;;6.09;100.00;99015.66;6312166;20;3660669;-56
2022/12/24 06:16:54;;;;;;;;;86.67;68.67;;;;;6.16;100.00;99014.38;6277719;20;3653409;-54
2022/12/24 06:19:24;;;;;;;;;90.67;68.67;;;;;6.15;100.00;99012.66;6308136;20;3668104;-56
2022/12/24 06:21:54;;;;;;;;;90.67;71.00;;;;;6.18;100.00;99030.28;6277281;20;3659627;-55
2022/12/24 06:24:23;;;;;;;;;92.67;71.00;;;;;6.12;100.00;99026.16;6278799;20;3684629;-55
2022/12/24 06:26:53;;;;;;;;;90.75;70.75;;;;;6.11;100.00;99019.13;6278381;20;4431524;-53
2022/12/24 06:29:22;;;;;;;;;90.50;71.25;;;;;6.04;100.00;99028.38;6312946;20;4439834;-55
2022/12/24 06:31:55;;;;;;;;;85.33;68.00;;;;;6.02;100.00;99019.59;6305083;20;3646118;-55
2022/12/24 06:34:25;;;;;;;;;89.67;67.33;;;;;6.07;100.00;99023.72;6308725;20;3650296;-56
2022/12/24 06:36:54;;;;;;;;;88.33;68.00;;;;;5.93;100.00;99039.56;6277735;20;3668071;-56
2022/12/24 06:39:24;;;;;;;;;91.00;69.67;;;;;5.87;100.00;99035.44;6278651;20;3670027;-55
2022/12/24 06:41:54;;;;;;;;;93.67;77.33;;;;;5.83;100.00;99035.66;6281542;20;3673233;-56
2022/12/24 06:44:24;;;;;;;;;87.67;65.33;;;;;5.87;100.00;99032.78;6280316;20;3661839;-54
2022/12/24 06:46:51;;;;;;;;;83.00;63.00;;;;;5.81;100.00;99034.88;6278985;20;2510777;-57
2022/12/24 06:49:21;;;;;;;;;89.33;72.67;;;;;5.83;100.00;99033.00;6278607;20;3665026;-56
2022/12/24 06:51:51;;;;;;;;;85.33;65.00;;;;;5.88;100.00;99034.47;6277434;20;3653442;-53
2022/12/24 06:54:20;;;;;;;;;87.00;66.33;;;;;6.04;100.00;99039.03;6280702;20;3658637;-54
2022/12/24 06:56:50;;;;;;;;;89.67;69.00;;;;;6.06;100.00;99047.81;6280413;20;3666961;-56
2022/12/24 06:59:19;;;;;;;;;85.33;63.67;;;;;6.05;100.00;99051.41;6274398;20;3647241;-56
2022/12/24 07:01:49;;;;;;;;;80.33;60.67;;;;;5.91;100.00;99065.44;6278621;20;3621252;-56
2022/12/24 07:04:19;;;;;;;;;86.50;67.00;;;;;6.10;100.00;99062.69;6314071;20;3654628;-55
2022/12/24 07:06:49;;;;;;;;;84.67;64.33;;;;;6.21;100.00;99078.09;6305957;20;3640887;-52
2022/12/24 07:09:18;;;;;;;;;88.33;66.33;;;;;6.26;100.00;99074.25;6311289;20;3667955;-56
2022/12/24 07:11:48;;;;;;;;;91.33;70.33;;;;;6.33;100.00;99080.97;6276757;20;3681682;-57
2022/12/24 07:14:18;;;;;;;;;84.33;64.67;;;;;6.37;100.00;99098.53;6278206;20;3640922;-56
2022/12/24 07:16:48;;;;;;;;;76.33;59.33;;;;;6.49;100.00;99098.81;6310186;20;3620469;-57
2022/12/24 07:19:26;;;;;;;;;78.33;61.00;;;;;6.56;100.00;99094.88;6306649;20;3632535;-57
2022/12/24 07:21:56;;;;;;;;;79.67;60.67;;;;;6.59;100.00;99092.03;6307782;20;3638782;-55
2022/12/24 07:24:25;;;;;;;;;75.33;59.33;;;;;6.70;100.00;99091.44;6309317;20;2880588;-55
2022/12/24 07:26:55;;;;;;;;;66.00;50.00;;;;;6.71;100.00;99096.66;6307375;20;3637763;-55
2022/12/24 07:29:24;;;;;;;;;69.67;52.33;;;;;6.86;100.00;99102.97;6307796;20;3650259;-57
2022/12/24 07:31:54;;;;;;;;;73.00;56.33;;;;;6.81;100.00;99095.22;6273482;20;3634642;-56
2022/12/24 07:34:23;;;;;;;;;76.00;59.67;;;;;6.79;100.00;99097.13;6309470;20;3637775;-53
2022/12/24 07:36:53;;;;;;;;;81.00;60.67;;;;;6.73;100.00;99108.13;6307039;20;3637885;-53
2022/12/24 07:39:23;;;;;;;;;74.00;57.67;;;;;6.63;100.00;99096.22;6308611;20;3633632;-53
2022/12/24 07:41:52;;;;;;;;;77.00;60.00;;;;;6.66;100.00;99103.22;6308142;20;3622276;-52
2022/12/24 07:44:22;;;;;;;;;79.50;59.50;;;;;6.59;100.00;99100.03;6312491;20;3661967;-55
2022/12/24 07:46:51;;;;;;;;;74.00;60.67;;;;;6.68;100.00;99093.31;6310978;20;3626329;-56
2022/12/24 07:49:21;;;;;;;;;78.33;61.00;;;;;6.70;100.00;99102.97;6311187;20;3647191;-53
2022/12/24 07:51:50;;;;;;;;;77.67;56.67;;;;;6.64;100.00;99113.97;6311802;20;3645560;-55
2022/12/24 07:54:20;;;;;;;;;83.67;63.00;;;;;6.64;100.00;99113.13;6313828;20;3640924;-57
2022/12/24 07:56:49;;;;;;;;;77.00;60.00;;;;;6.57;100.00;99113.44;6312038;20;3637825;-55
2022/12/24 07:59:20;;;;;;;;;85.33;70.00;;;;;6.57;100.00;99123.25;6312249;20;3663866;-55
2022/12/24 08:01:50;;;;;;;;;86.00;66.00;;;;;6.60;100.00;99131.09;6280175;20;3654482;-54
2022/12/24 08:04:20;;;;;;;;;85.33;67.33;;;;;6.67;100.00;99128.97;6315180;20;3649359;-53
2022/12/24 08:06:50;;;;;;;;;84.67;62.67;;;;;6.66;100.00;99130.78;6277720;20;3645167;-56
2022/12/24 08:09:20;;;;;;;;;84.67;64.67;;;;;6.57;100.00;99129.44;6312204;20;3644042;-57
2022/12/24 08:11:49;;;;;;;;;85.33;67.67;;;;;6.65;100.00;99134.38;6313700;20;3636918;-55
2022/12/24 08:14:20;;;;;;;;;83.33;62.67;;;;;6.58;100.00;99140.97;6281840;20;3641005;-55
2022/12/24 08:16:50;;;;;;;;;85.33;70.33;;;;;6.57;100.00;99142.78;6315606;20;3636844;-54
2022/12/24 08:19:20;;;;;;;;;92.33;76.33;;;;;6.69;100.00;99149.28;6314184;20;3684699;-54
2022/12/24 08:21:50;;;;;;;;;122.25;112.00;;;;;6.68;100.00;99152.00;6283784;20;4472225;-55
2022/12/24 08:24:20;;;;;;;;;89.67;75.67;;;;;6.53;100.00;99153.69;6314068;20;3665915;-55
2022/12/24 08:26:50;;;;;;;;;92.67;82.33;;;;;6.66;100.00;99160.13;6281562;20;3662797;-53
2022/12/24 08:29:19;;;;;;;;;100.00;91.33;;;;;6.76;100.00;99171.97;6274611;20;3663784;-54
2022/12/24 08:31:49;;;;;;;;;92.00;79.00;;;;;6.72;100.00;99180.25;6273297;20;3671107;-54
2022/12/24 08:34:18;;;;;;;;;94.33;82.00;;;;;6.82;100.00;99198.34;6279465;20;3674331;-57
2022/12/24 08:36:48;;;;;;;;;90.33;76.00;;;;;6.70;100.00;99193.66;6278305;20;3657144;-55
2022/12/24 08:39:18;;;;;;;;;92.67;78.67;;;;;6.94;100.00;99217.31;6278017;20;3667970;-53
2022/12/24 08:41:47;;;;;;;;;89.67;73.00;;;;;7.00;100.00;99222.28;6278367;20;3666914;-52
2022/12/24 08:44:17;;;;;;;;;84.33;65.33;;;;;7.04;100.00;99226.53;6281971;20;3635678;-56
2022/12/24 08:46:47;;;;;;;;;85.00;70.67;;;;;7.16;100.00;99228.53;6310358;20;3656517;-56
2022/12/24 08:49:16;;;;;;;;;87.00;71.67;;;;;7.28;100.00;99231.47;6277712;20;3660696;-54
2022/12/24 08:51:46;;;;;;;;;81.67;65.67;;;;;7.15;100.00;99232.16;6281415;20;3639952;-54
2022/12/24 08:54:15;;;;;;;;;82.00;64.00;;;;;7.28;100.00;99243.00;6314570;20;3641956;-52
2022/12/24 08:56:45;;;;;;;;;88.67;67.67;;;;;7.10;100.00;99246.69;6311298;20;3665896;-55
2022/12/24 08:59:14;;;;;;;;;78.67;61.00;;;;;7.25;100.00;99244.03;6282665;20;3624256;-55
2022/12/24 09:01:44;;;;;;;;;82.00;63.00;;;;;7.23;100.00;99251.28;6314402;20;3630611;-54
2022/12/24 09:04:14;;;;;;;;;78.00;59.00;;;;;7.41;100.00;99248.53;6314174;20;3641906;-55
2022/12/24 09:06:43;;;;;;;;;85.00;62.00;;;;;7.50;100.00;99248.00;6280141;20;3654464;-55
2022/12/24 09:09:13;;;;;;;;;76.67;60.00;;;;;7.73;100.00;99244.03;6282444;20;3606567;-53
2022/12/24 09:11:44;;;;;;;;;76.33;58.67;;;;;7.91;100.00;99242.13;6316876;20;3624264;-56
2022/12/24 09:14:13;;;;;;;;;74.67;59.00;;;;;8.02;100.00;99239.69;6314244;20;3613088;-55
2022/12/24 09:16:42;;;;;;;;;122.00;105.00;;;;;8.04;100.00;99236.94;6313591;20;3593074;-56
2022/12/24 09:19:11;;;;;;;;;67.00;52.00;;;;;8.22;100.00;99238.53;6276869;20;3620643;-53
2022/12/24 09:21:41;;;;;;;;;81.00;60.67;;;;;8.26;100.00;99231.19;6309711;20;3648328;-55
2022/12/24 09:24:10;;;;;;;;;70.67;51.33;;;;;8.46;100.00;99238.91;6279550;20;2868082;-55
2022/12/24 09:26:41;;;;;;;;;71.33;55.33;;;;;8.73;100.00;99232.84;6312049;20;3634720;-58
2022/12/24 09:29:10;;;;;;;;;69.00;55.67;;;;;8.54;100.00;99231.28;6313513;20;3616940;-57
2022/12/24 09:31:40;;;;;;;;;72.67;54.33;;;;;8.45;100.00;99253.25;6276277;20;3638842;-57
2022/12/24 09:34:10;;;;;;;;;68.67;53.67;;;;;8.54;100.00;99262.53;6311587;20;3637816;-56
2022/12/24 09:36:39;;;;;;;;;73.00;57.33;;;;;8.55;100.00;99258.91;6311469;20;3624233;-57
2022/12/24 09:39:09;;;;;;;;;75.00;56.67;;;;;8.49;100.00;99260.13;6313200;20;3624205;-57
2022/12/24 09:42:08;;;;;;;;;61.67;50.67;;;;;8.76;100.00;99272.78;6313754;20;2864954;-58
2022/12/24 09:45:14;;;;;;;;;65.00;50.00;;;;;8.96;100.00;99269.75;6310213;20;3628481;-58
2022/12/24 09:48:03;;;;;;;;;62.33;48.33;;;;;9.15;100.00;99268.63;6312639;20;3636735;-58
2022/12/24 09:50:37;;;;;;;;;51.67;43.67;;;;;9.41;100.00;99275.03;6312645;20;3605492;-59
2022/12/24 09:53:46;;;;;;;;;55.67;42.33;;;;;9.45;100.00;99282.78;6279521;20;3621102;-59
2022/12/24 09:56:44;;;;;;;;;56.00;45.50;;;;;9.63;100.00;99286.06;6307734;20;2860704;-59
2022/12/24 09:59:25;;;;;;;;;47.00;39.33;;;;;9.74;100.00;99281.84;6274581;20;2857658;-58
2022/12/24 10:01:55;;;;;;;;;40.67;35.00;;;;;9.75;100.00;99279.09;6311496;20;3617006;-59
2022/12/24 10:04:29;;;;;;;;;35.00;30.33;;;;;9.91;100.00;99283.44;6284535;20;3605617;-59
2022/12/24 10:07:10;;;;;;;;;46.67;38.00;;;;;9.87;100.00;99289.03;6282387;20;3611877;-58
2022/12/24 10:10:23;;;;;;;;;40.67;35.33;;;;;10.04;100.00;99284.38;6279168;20;2864853;-59
2022/12/24 10:14:02;;;;;;;;;47.33;37.67;;;;;10.20;100.00;99274.34;6310588;20;3620113;-59
2022/12/24 10:17:00;;;;;;;;;31.00;29.33;;;;;10.21;100.00;99284.09;6317971;20;3600334;-59
2022/12/24 10:20:09;;;;;;;;;49.00;39.33;;;;;10.30;100.00;99286.22;6278258;20;2859721;-59
2022/12/24 10:23:17;;;;;;;;;59.33;47.33;;;;;10.41;100.00;99293.53;6308391;20;2874358;-57
2022/12/24 10:26:24;;;;;;;;;28.33;24.33;;;;;10.35;100.00;99285.03;6312454;20;3574218;-59
2022/12/24 10:29:06;;;;;;;;;47.00;35.33;;;;;10.41;100.00;99292.69;6280850;20;3631991;-58
2022/12/24 10:32:07;;;;;;;;;54.50;45.50;;;;;10.55;100.00;99300.66;6308043;20;2845071;-58
2022/12/24 10:35:14;;;;;;;;;41.33;34.33;;;;;10.58;100.00;99313.00;6276099;20;3617176;-58
2022/12/24 10:37:47;;;;;;;;;38.67;33.00;;;;;10.70;99.43;99309.50;6308948;20;3615084;-58
2022/12/24 10:40:43;;;;;;;;;29.00;26.67;;;;;10.60;100.00;99309.25;6279503;20;3597126;-57
2022/12/24 10:43:24;;;;;;;;;35.67;29.67;;;;;10.47;100.00;99319.09;6280250;20;2869138;-57
2022/12/24 10:46:13;;;;;;;;;38.67;32.33;;;;;10.23;100.00;99311.69;6309870;20;3594054;-58
2022/12/24 10:48:55;;;;;;;;;30.33;26.33;;;;;10.43;100.00;99322.97;6280172;20;2854704;-58
2022/12/24 10:51:40;;;;;;;;;31.67;31.33;;;;;10.35;100.00;99319.91;6307313;20;3594045;-61
2022/12/24 10:54:23;;;;;;;;;36.00;33.50;;;;;10.61;100.00;99310.09;6276936;20;2861889;-58
2022/12/24 10:57:01;;;;;;;;;37.33;31.00;;;;;10.56;100.00;99313.13;6281338;20;3606539;-58
2022/12/24 10:59:49;;;;;;;;;27.33;27.33;;;;;10.83;100.00;99315.75;6277300;20;3599213;-58
2022/12/24 11:02:29;;;;;;;;;25.67;24.67;;;;;10.61;100.00;99321.72;6276239;20;2853469;-58
2022/12/24 11:05:01;;;;;;;;;29.00;28.00;;;;;10.61;100.00;99321.72;6312210;20;3592988;-59
2022/12/24 11:07:31;;;;;;;;;29.00;26.00;;;;;10.81;100.00;99319.50;6276037;20;3604538;-58
2022/12/24 11:10:07;;;;;;;;;30.67;27.33;;;;;10.77;100.00;99322.41;6309282;20;3600378;-57
2022/12/24 11:12:45;;;;;;;;;26.00;22.67;;;;;10.90;100.00;99321.53;6284690;20;3581508;-57
2022/12/24 11:15:34;;;;;;;;;44.33;39.00;;;;;10.69;98.75;99330.13;6271847;20;3604691;-58
2022/12/24 11:18:13;;;;;;;;;52.00;43.50;;;;;10.63;99.38;99325.16;6281383;20;2864943;-59
2022/12/24 11:20:51;;;;;;;;;39.00;34.00;;;;;10.87;100.00;99327.13;6278825;20;2857700;-58
2022/12/24 11:23:22;;;;;;;;;38.67;33.33;;;;;10.95;100.00;99324.78;6315890;20;3601323;-59
2022/12/24 11:25:52;;;;;;;;;49.33;40.67;;;;;10.87;100.00;99319.94;6282780;20;2850387;-59
2022/12/24 11:28:31;;;;;;;;;40.00;34.67;;;;;10.91;100.00;99331.34;6310948;20;2859781;-58
2022/12/24 11:31:18;;;;;;;;;44.67;37.67;;;;;10.98;100.00;99335.34;6307257;20;3589950;-53
2022/12/24 11:33:52;;;;;;;;;38.67;32.00;;;;;10.84;100.00;99332.72;6279677;20;3609656;-56
2022/12/24 11:36:25;;;;;;;;;40.67;34.33;;;;;10.91;100.00;99334.88;6285783;20;2866028;-57
2022/12/24 11:38:57;;;;;;;;;51.50;42.50;;;;;10.93;100.00;99342.84;6309098;20;2841986;-57
2022/12/24 11:41:27;;;;;;;;;77.33;66.00;;;;;10.84;100.00;99343.47;6280377;20;3644014;-57